Terminal Aerodrome Forecast
Issued by NWS

Home | Current Version | Previous Version | Text Only | Print | Product List | Glossary On
Versions: 1 2 3 4 5 6 7 8 9 10 11 12 13 14 15
000
FTUS46 KMTR 162300
TAFOAK
TAF
KOAK 162320Z 1700/1806 28016KT P6SM FEW250
     FM170200 29010KT P6SM SKC
     FM171000 29006KT P6SM SCT012
      TEMPO 1717/1719 BKN012
     FM172000 29012KT P6SM FEW012=

USA.gov is the U.S. government's official web portal to all federal, state and local government web resources and services.